sensor_id;sensor_type;location;lat;lon;timestamp;P1;durP1;ratioP1;P2;durP2;ratioP2
11608;SDS011;5860;52.018;8.536;2023-04-25T00:02:13;9.77;;;4.23;;
11608;SDS011;5860;52.018;8.536;2023-04-25T00:04:41;17.57;;;5.63;;
11608;SDS011;5860;52.018;8.536;2023-04-25T00:07:09;19.67;;;5.83;;
11608;SDS011;5860;52.018;8.536;2023-04-25T00:09:38;18.23;;;5.47;;
11608;SDS011;5860;52.018;8.536;2023-04-25T00:12:06;15.77;;;5.50;;
11608;SDS011;5860;52.018;8.536;2023-04-25T00:14:33;13.73;;;5.10;;
11608;SDS011;5860;52.018;8.536;2023-04-25T00:17:00;14.73;;;5.57;;
11608;SDS011;5860;52.018;8.536;2023-04-25T00:19:27;16.67;;;5.53;;
11608;SDS011;5860;52.018;8.536;2023-04-25T00:21:55;9.63;;;5.77;;
11608;SDS011;5860;52.018;8.536;2023-04-25T00:24:22;13.00;;;5.77;;
11608;SDS011;5860;52.018;8.536;2023-04-25T00:26:49;15.37;;;5.77;;
11608;SDS011;5860;52.018;8.536;2023-04-25T00:29:16;17.67;;;5.77;;
11608;SDS011;5860;52.018;8.536;2023-04-25T00:31:43;12.03;;;5.67;;
11608;SDS011;5860;52.018;8.536;2023-04-25T00:34:10;15.57;;;6.03;;
11608;SDS011;5860;52.018;8.536;2023-04-25T00:36:37;17.73;;;6.63;;
11608;SDS011;5860;52.018;8.536;2023-04-25T00:39:04;12.30;;;6.03;;
11608;SDS011;5860;52.018;8.536;2023-04-25T00:41:31;16.20;;;6.90;;
11608;SDS011;5860;52.018;8.536;2023-04-25T00:43:59;17.67;;;6.73;;
11608;SDS011;5860;52.018;8.536;2023-04-25T00:46:28;17.87;;;5.87;;
11608;SDS011;5860;52.018;8.536;2023-04-25T00:48:56;18.20;;;5.87;;
11608;SDS011;5860;52.018;8.536;2023-04-25T00:51:23;16.70;;;6.30;;
11608;SDS011;5860;52.018;8.536;2023-04-25T00:53:52;18.83;;;6.07;;
11608;SDS011;5860;52.018;8.536;2023-04-25T00:56:20;15.90;;;6.57;;
11608;SDS011;5860;52.018;8.536;2023-04-25T00:58:47;16.43;;;6.50;;
11608;SDS011;5860;52.018;8.536;2023-04-25T01:01:16;12.37;;;6.53;;
11608;SDS011;5860;52.018;8.536;2023-04-25T01:03:43;15.50;;;6.47;;
11608;SDS011;5860;52.018;8.536;2023-04-25T01:06:13;15.13;;;6.70;;
11608;SDS011;5860;52.018;8.536;2023-04-25T01:08:40;21.27;;;6.87;;
11608;SDS011;5860;52.018;8.536;2023-04-25T01:11:07;18.10;;;6.87;;
11608;SDS011;5860;52.018;8.536;2023-04-25T01:13:34;14.40;;;6.23;;
11608;SDS011;5860;52.018;8.536;2023-04-25T01:16:02;16.87;;;6.60;;
11608;SDS011;5860;52.018;8.536;2023-04-25T01:18:30;13.47;;;6.60;;
11608;SDS011;5860;52.018;8.536;2023-04-25T01:23:30;20.10;;;6.67;;
11608;SDS011;5860;52.018;8.536;2023-04-25T01:25:59;12.57;;;5.97;;
11608;SDS011;5860;52.018;8.536;2023-04-25T01:28:29;14.93;;;6.83;;
11608;SDS011;5860;52.018;8.536;2023-04-25T01:30:56;14.70;;;6.97;;
11608;SDS011;5860;52.018;8.536;2023-04-25T01:33:24;19.37;;;7.90;;
11608;SDS011;5860;52.018;8.536;2023-04-25T01:35:51;15.57;;;7.20;;
11608;SDS011;5860;52.018;8.536;2023-04-25T01:38:18;16.83;;;7.10;;
11608;SDS011;5860;52.018;8.536;2023-04-25T01:40:45;13.93;;;6.57;;
11608;SDS011;5860;52.018;8.536;2023-04-25T01:43:16;17.23;;;6.53;;
11608;SDS011;5860;52.018;8.536;2023-04-25T01:45:43;14.50;;;6.47;;
11608;SDS011;5860;52.018;8.536;2023-04-25T01:48:11;16.90;;;7.73;;
11608;SDS011;5860;52.018;8.536;2023-04-25T01:50:40;17.40;;;7.43;;
11608;SDS011;5860;52.018;8.536;2023-04-25T01:53:08;13.80;;;7.10;;
11608;SDS011;5860;52.018;8.536;2023-04-25T01:55:37;16.53;;;7.67;;
11608;SDS011;5860;52.018;8.536;2023-04-25T01:58:04;14.53;;;7.30;;
11608;SDS011;5860;52.018;8.536;2023-04-25T02:00:39;14.70;;;7.13;;
11608;SDS011;5860;52.018;8.536;2023-04-25T02:03:07;12.03;;;6.87;;
11608;SDS011;5860;52.018;8.536;2023-04-25T02:05:35;9.67;;;6.53;;
11608;SDS011;5860;52.018;8.536;2023-04-25T02:08:07;14.17;;;6.57;;
11608;SDS011;5860;52.018;8.536;2023-04-25T02:10:35;10.43;;;5.50;;
11608;SDS011;5860;52.018;8.536;2023-04-25T02:13:02;11.90;;;6.17;;
11608;SDS011;5860;52.018;8.536;2023-04-25T02:15:31;12.87;;;5.77;;
11608;SDS011;5860;52.018;8.536;2023-04-25T02:17:58;11.10;;;4.97;;
11608;SDS011;5860;52.018;8.536;2023-04-25T02:20:27;13.77;;;6.40;;
11608;SDS011;5860;52.018;8.536;2023-04-25T02:22:54;11.77;;;4.90;;
11608;SDS011;5860;52.018;8.536;2023-04-25T02:25:21;10.43;;;4.40;;
11608;SDS011;5860;52.018;8.536;2023-04-25T02:27:48;10.33;;;4.20;;
11608;SDS011;5860;52.018;8.536;2023-04-25T02:30:16;9.93;;;3.73;;
11608;SDS011;5860;52.018;8.536;2023-04-25T02:32:43;14.90;;;5.00;;
11608;SDS011;5860;52.018;8.536;2023-04-25T02:35:11;9.10;;;3.90;;
11608;SDS011;5860;52.018;8.536;2023-04-25T02:37:38;6.80;;;3.80;;
11608;SDS011;5860;52.018;8.536;2023-04-25T02:40:06;10.43;;;3.63;;
11608;SDS011;5860;52.018;8.536;2023-04-25T02:42:34;16.90;;;3.97;;
11608;SDS011;5860;52.018;8.536;2023-04-25T02:45:02;12.20;;;4.20;;
11608;SDS011;5860;52.018;8.536;2023-04-25T02:47:29;14.50;;;4.10;;
11608;SDS011;5860;52.018;8.536;2023-04-25T02:49:56;14.70;;;4.80;;
11608;SDS011;5860;52.018;8.536;2023-04-25T02:52:23;13.73;;;4.27;;
11608;SDS011;5860;52.018;8.536;2023-04-25T02:54:50;12.03;;;4.47;;
11608;SDS011;5860;52.018;8.536;2023-04-25T02:57:17;14.97;;;4.60;;
11608;SDS011;5860;52.018;8.536;2023-04-25T02:59:44;15.73;;;4.57;;
11608;SDS011;5860;52.018;8.536;2023-04-25T03:02:11;15.97;;;4.33;;
11608;SDS011;5860;52.018;8.536;2023-04-25T03:04:38;15.63;;;3.97;;
11608;SDS011;5860;52.018;8.536;2023-04-25T03:07:06;23.20;;;4.70;;
11608;SDS011;5860;52.018;8.536;2023-04-25T03:09:33;13.27;;;4.47;;
11608;SDS011;5860;52.018;8.536;2023-04-25T03:11:59;19.17;;;4.73;;
11608;SDS011;5860;52.018;8.536;2023-04-25T03:14:27;15.60;;;5.07;;
11608;SDS011;5860;52.018;8.536;2023-04-25T03:16:54;16.37;;;4.90;;
11608;SDS011;5860;52.018;8.536;2023-04-25T03:19:21;21.17;;;4.50;;
11608;SDS011;5860;52.018;8.536;2023-04-25T03:21:48;17.07;;;4.60;;
11608;SDS011;5860;52.018;8.536;2023-04-25T03:24:15;14.57;;;4.23;;
11608;SDS011;5860;52.018;8.536;2023-04-25T03:26:42;17.80;;;3.90;;
11608;SDS011;5860;52.018;8.536;2023-04-25T03:29:10;16.53;;;4.53;;
11608;SDS011;5860;52.018;8.536;2023-04-25T03:31:37;21.87;;;4.80;;
11608;SDS011;5860;52.018;8.536;2023-04-25T03:34:03;15.93;;;4.30;;
11608;SDS011;5860;52.018;8.536;2023-04-25T03:36:30;22.37;;;4.23;;
11608;SDS011;5860;52.018;8.536;2023-04-25T03:38:59;21.03;;;4.60;;
11608;SDS011;5860;52.018;8.536;2023-04-25T03:41:26;18.03;;;4.40;;
11608;SDS011;5860;52.018;8.536;2023-04-25T03:43:52;19.00;;;4.97;;
11608;SDS011;5860;52.018;8.536;2023-04-25T03:46:20;18.70;;;4.30;;
11608;SDS011;5860;52.018;8.536;2023-04-25T03:48:47;23.43;;;4.83;;
11608;SDS011;5860;52.018;8.536;2023-04-25T03:51:14;12.20;;;4.03;;
11608;SDS011;5860;52.018;8.536;2023-04-25T03:53:41;17.03;;;4.30;;
11608;SDS011;5860;52.018;8.536;2023-04-25T03:56:08;16.33;;;4.03;;
11608;SDS011;5860;52.018;8.536;2023-04-25T03:58:35;13.57;;;3.73;;
11608;SDS011;5860;52.018;8.536;2023-04-25T04:01:02;17.70;;;4.77;;
11608;SDS011;5860;52.018;8.536;2023-04-25T04:03:34;13.80;;;4.20;;
11608;SDS011;5860;52.018;8.536;2023-04-25T04:06:03;12.67;;;3.73;;
11608;SDS011;5860;52.018;8.536;2023-04-25T04:08:32;15.67;;;4.33;;
11608;SDS011;5860;52.018;8.536;2023-04-25T04:10:59;17.00;;;4.13;;
11608;SDS011;5860;52.018;8.536;2023-04-25T04:13:27;17.53;;;5.00;;
11608;SDS011;5860;52.018;8.536;2023-04-25T04:15:54;14.27;;;3.77;;
11608;SDS011;5860;52.018;8.536;2023-04-25T04:18:22;13.33;;;3.83;;
11608;SDS011;5860;52.018;8.536;2023-04-25T04:20:48;13.20;;;4.77;;
11608;SDS011;5860;52.018;8.536;2023-04-25T04:23:15;14.90;;;3.87;;
11608;SDS011;5860;52.018;8.536;2023-04-25T04:25:43;16.80;;;4.77;;
11608;SDS011;5860;52.018;8.536;2023-04-25T04:28:10;18.83;;;3.87;;
11608;SDS011;5860;52.018;8.536;2023-04-25T04:30:37;21.47;;;5.47;;
11608;SDS011;5860;52.018;8.536;2023-04-25T04:33:05;13.73;;;4.50;;
11608;SDS011;5860;52.018;8.536;2023-04-25T04:35:33;21.90;;;4.60;;
11608;SDS011;5860;52.018;8.536;2023-04-25T04:38:00;17.40;;;4.30;;
11608;SDS011;5860;52.018;8.536;2023-04-25T04:40:27;17.93;;;4.10;;
11608;SDS011;5860;52.018;8.536;2023-04-25T04:42:54;17.57;;;4.73;;
11608;SDS011;5860;52.018;8.536;2023-04-25T04:45:23;18.73;;;5.17;;
11608;SDS011;5860;52.018;8.536;2023-04-25T04:47:50;17.93;;;4.67;;
11608;SDS011;5860;52.018;8.536;2023-04-25T04:50:17;13.87;;;3.77;;
11608;SDS011;5860;52.018;8.536;2023-04-25T04:52:44;15.47;;;4.60;;
11608;SDS011;5860;52.018;8.536;2023-04-25T04:55:11;16.70;;;5.10;;
11608;SDS011;5860;52.018;8.536;2023-04-25T04:57:38;23.20;;;5.30;;
11608;SDS011;5860;52.018;8.536;2023-04-25T05:00:05;17.03;;;5.10;;
11608;SDS011;5860;52.018;8.536;2023-04-25T05:02:39;21.43;;;5.27;;
11608;SDS011;5860;52.018;8.536;2023-04-25T05:05:07;18.27;;;5.23;;
11608;SDS011;5860;52.018;8.536;2023-04-25T05:07:34;16.83;;;5.37;;
11608;SDS011;5860;52.018;8.536;2023-04-25T05:10:01;16.27;;;4.80;;
11608;SDS011;5860;52.018;8.536;2023-04-25T05:12:28;18.30;;;5.67;;
11608;SDS011;5860;52.018;8.536;2023-04-25T05:14:56;19.40;;;6.50;;
11608;SDS011;5860;52.018;8.536;2023-04-25T05:17:23;18.83;;;5.90;;
11608;SDS011;5860;52.018;8.536;2023-04-25T05:19:50;22.07;;;5.90;;
11608;SDS011;5860;52.018;8.536;2023-04-25T05:22:17;17.37;;;6.13;;
11608;SDS011;5860;52.018;8.536;2023-04-25T05:24:44;18.13;;;5.70;;
11608;SDS011;5860;52.018;8.536;2023-04-25T05:27:12;21.77;;;6.03;;
11608;SDS011;5860;52.018;8.536;2023-04-25T05:29:38;15.73;;;5.30;;
11608;SDS011;5860;52.018;8.536;2023-04-25T05:32:05;18.47;;;5.53;;
11608;SDS011;5860;52.018;8.536;2023-04-25T05:34:34;15.30;;;5.63;;
11608;SDS011;5860;52.018;8.536;2023-04-25T05:37:00;27.47;;;6.13;;
11608;SDS011;5860;52.018;8.536;2023-04-25T05:39:28;16.80;;;4.67;;
11608;SDS011;5860;52.018;8.536;2023-04-25T05:41:55;17.20;;;5.20;;
11608;SDS011;5860;52.018;8.536;2023-04-25T05:44:21;15.97;;;4.83;;
11608;SDS011;5860;52.018;8.536;2023-04-25T05:46:48;21.10;;;5.27;;
11608;SDS011;5860;52.018;8.536;2023-04-25T05:49:16;16.60;;;5.03;;
11608;SDS011;5860;52.018;8.536;2023-04-25T05:51:44;15.00;;;4.93;;
11608;SDS011;5860;52.018;8.536;2023-04-25T05:54:11;16.13;;;4.57;;
11608;SDS011;5860;52.018;8.536;2023-04-25T05:56:38;16.57;;;4.93;;
11608;SDS011;5860;52.018;8.536;2023-04-25T05:59:05;16.67;;;4.80;;
11608;SDS011;5860;52.018;8.536;2023-04-25T06:01:33;20.07;;;5.93;;
11608;SDS011;5860;52.018;8.536;2023-04-25T06:04:00;16.10;;;4.47;;
11608;SDS011;5860;52.018;8.536;2023-04-25T06:06:28;18.03;;;4.27;;
11608;SDS011;5860;52.018;8.536;2023-04-25T06:08:55;15.70;;;4.87;;
11608;SDS011;5860;52.018;8.536;2023-04-25T06:11:22;15.03;;;4.10;;
11608;SDS011;5860;52.018;8.536;2023-04-25T06:13:49;16.47;;;3.87;;
11608;SDS011;5860;52.018;8.536;2023-04-25T06:16:16;20.53;;;4.80;;
11608;SDS011;5860;52.018;8.536;2023-04-25T06:18:43;17.37;;;4.40;;
11608;SDS011;5860;52.018;8.536;2023-04-25T06:21:11;14.07;;;3.93;;
11608;SDS011;5860;52.018;8.536;2023-04-25T06:23:38;14.33;;;4.33;;
11608;SDS011;5860;52.018;8.536;2023-04-25T06:26:05;10.70;;;4.60;;
11608;SDS011;5860;52.018;8.536;2023-04-25T06:28:32;15.57;;;4.17;;
11608;SDS011;5860;52.018;8.536;2023-04-25T06:30:59;16.40;;;4.27;;
11608;SDS011;5860;52.018;8.536;2023-04-25T06:33:26;18.37;;;4.50;;
11608;SDS011;5860;52.018;8.536;2023-04-25T06:35:53;17.37;;;4.43;;
11608;SDS011;5860;52.018;8.536;2023-04-25T06:38:20;12.33;;;3.77;;
11608;SDS011;5860;52.018;8.536;2023-04-25T06:40:47;20.90;;;4.50;;
11608;SDS011;5860;52.018;8.536;2023-04-25T06:43:14;12.93;;;3.67;;
11608;SDS011;5860;52.018;8.536;2023-04-25T06:45:42;22.93;;;4.40;;
11608;SDS011;5860;52.018;8.536;2023-04-25T06:48:11;16.40;;;3.53;;
11608;SDS011;5860;52.018;8.536;2023-04-25T06:50:38;15.10;;;3.73;;
11608;SDS011;5860;52.018;8.536;2023-04-25T06:53:05;12.83;;;2.93;;
11608;SDS011;5860;52.018;8.536;2023-04-25T06:55:32;18.03;;;4.63;;
11608;SDS011;5860;52.018;8.536;2023-04-25T06:58:00;13.67;;;3.43;;
11608;SDS011;5860;52.018;8.536;2023-04-25T07:00:28;12.53;;;3.20;;
11608;SDS011;5860;52.018;8.536;2023-04-25T07:02:55;13.93;;;3.67;;
11608;SDS011;5860;52.018;8.536;2023-04-25T07:05:22;12.67;;;3.43;;
11608;SDS011;5860;52.018;8.536;2023-04-25T07:07:49;15.40;;;3.37;;
11608;SDS011;5860;52.018;8.536;2023-04-25T07:10:16;12.87;;;3.53;;
11608;SDS011;5860;52.018;8.536;2023-04-25T07:12:43;11.03;;;2.70;;
11608;SDS011;5860;52.018;8.536;2023-04-25T07:15:10;13.77;;;3.40;;
11608;SDS011;5860;52.018;8.536;2023-04-25T07:17:37;11.57;;;3.13;;
11608;SDS011;5860;52.018;8.536;2023-04-25T07:20:05;18.10;;;3.70;;
11608;SDS011;5860;52.018;8.536;2023-04-25T07:22:33;18.40;;;3.57;;
11608;SDS011;5860;52.018;8.536;2023-04-25T07:25:00;14.63;;;3.60;;
11608;SDS011;5860;52.018;8.536;2023-04-25T07:27:28;15.67;;;3.37;;
11608;SDS011;5860;52.018;8.536;2023-04-25T07:29:55;12.30;;;3.20;;
11608;SDS011;5860;52.018;8.536;2023-04-25T07:32:22;13.57;;;3.70;;
11608;SDS011;5860;52.018;8.536;2023-04-25T07:34:49;13.70;;;3.57;;
11608;SDS011;5860;52.018;8.536;2023-04-25T07:37:17;11.40;;;2.77;;
11608;SDS011;5860;52.018;8.536;2023-04-25T07:39:45;13.40;;;3.47;;
11608;SDS011;5860;52.018;8.536;2023-04-25T07:42:13;13.60;;;2.73;;
11608;SDS011;5860;52.018;8.536;2023-04-25T07:44:40;16.97;;;2.87;;
11608;SDS011;5860;52.018;8.536;2023-04-25T07:47:08;10.27;;;3.90;;
11608;SDS011;5860;52.018;8.536;2023-04-25T07:49:37;13.10;;;3.13;;
11608;SDS011;5860;52.018;8.536;2023-04-25T07:52:04;12.00;;;3.07;;
11608;SDS011;5860;52.018;8.536;2023-04-25T07:54:35;13.10;;;2.80;;
11608;SDS011;5860;52.018;8.536;2023-04-25T07:57:02;12.57;;;2.97;;
11608;SDS011;5860;52.018;8.536;2023-04-25T07:59:35;14.37;;;2.53;;
11608;SDS011;5860;52.018;8.536;2023-04-25T08:02:03;12.27;;;3.17;;
11608;SDS011;5860;52.018;8.536;2023-04-25T08:04:30;11.70;;;2.50;;
11608;SDS011;5860;52.018;8.536;2023-04-25T08:06:57;12.70;;;3.17;;
11608;SDS011;5860;52.018;8.536;2023-04-25T08:09:24;9.07;;;2.63;;
11608;SDS011;5860;52.018;8.536;2023-04-25T08:11:51;10.20;;;2.90;;
11608;SDS011;5860;52.018;8.536;2023-04-25T08:14:19;7.57;;;2.37;;
11608;SDS011;5860;52.018;8.536;2023-04-25T08:16:46;10.00;;;2.67;;
11608;SDS011;5860;52.018;8.536;2023-04-25T08:19:14;11.97;;;3.17;;
11608;SDS011;5860;52.018;8.536;2023-04-25T08:21:41;5.63;;;2.20;;
11608;SDS011;5860;52.018;8.536;2023-04-25T08:24:08;9.57;;;2.30;;
11608;SDS011;5860;52.018;8.536;2023-04-25T08:26:35;9.07;;;2.60;;
11608;SDS011;5860;52.018;8.536;2023-04-25T08:29:03;5.70;;;1.97;;
11608;SDS011;5860;52.018;8.536;2023-04-25T08:31:31;11.07;;;2.30;;
11608;SDS011;5860;52.018;8.536;2023-04-25T08:33:59;12.57;;;2.70;;
11608;SDS011;5860;52.018;8.536;2023-04-25T08:36:26;7.77;;;2.13;;
11608;SDS011;5860;52.018;8.536;2023-04-25T08:38:57;10.90;;;2.20;;
11608;SDS011;5860;52.018;8.536;2023-04-25T08:41:25;8.43;;;2.13;;
11608;SDS011;5860;52.018;8.536;2023-04-25T08:43:53;8.10;;;2.47;;
11608;SDS011;5860;52.018;8.536;2023-04-25T08:46:23;9.73;;;2.30;;
11608;SDS011;5860;52.018;8.536;2023-04-25T08:48:51;7.30;;;1.87;;
11608;SDS011;5860;52.018;8.536;2023-04-25T08:51:23;7.67;;;1.83;;
11608;SDS011;5860;52.018;8.536;2023-04-25T08:53:52;8.10;;;1.87;;
11608;SDS011;5860;52.018;8.536;2023-04-25T08:56:25;9.60;;;2.40;;
11608;SDS011;5860;52.018;8.536;2023-04-25T08:58:54;6.27;;;1.93;;
11608;SDS011;5860;52.018;8.536;2023-04-25T09:01:21;3.63;;;1.53;;
11608;SDS011;5860;52.018;8.536;2023-04-25T09:03:48;8.13;;;1.80;;
11608;SDS011;5860;52.018;8.536;2023-04-25T09:06:16;5.73;;;1.60;;
11608;SDS011;5860;52.018;8.536;2023-04-25T09:08:45;6.40;;;1.63;;
11608;SDS011;5860;52.018;8.536;2023-04-25T09:11:12;3.63;;;1.37;;
11608;SDS011;5860;52.018;8.536;2023-04-25T09:13:41;6.63;;;2.40;;
11608;SDS011;5860;52.018;8.536;2023-04-25T09:16:08;6.37;;;1.87;;
11608;SDS011;5860;52.018;8.536;2023-04-25T09:18:35;6.90;;;2.03;;
11608;SDS011;5860;52.018;8.536;2023-04-25T09:21:06;5.70;;;2.13;;
11608;SDS011;5860;52.018;8.536;2023-04-25T09:23:40;7.20;;;1.90;;
11608;SDS011;5860;52.018;8.536;2023-04-25T09:26:07;6.53;;;2.37;;
11608;SDS011;5860;52.018;8.536;2023-04-25T09:28:36;7.63;;;2.50;;
11608;SDS011;5860;52.018;8.536;2023-04-25T09:31:04;4.07;;;1.70;;
11608;SDS011;5860;52.018;8.536;2023-04-25T09:33:32;7.90;;;1.70;;
11608;SDS011;5860;52.018;8.536;2023-04-25T09:36:02;6.97;;;1.87;;
11608;SDS011;5860;52.018;8.536;2023-04-25T09:38:31;5.43;;;1.50;;
11608;SDS011;5860;52.018;8.536;2023-04-25T09:41:07;7.33;;;1.83;;
11608;SDS011;5860;52.018;8.536;2023-04-25T09:43:35;6.83;;;1.57;;
11608;SDS011;5860;52.018;8.536;2023-04-25T09:46:04;7.27;;;1.80;;
11608;SDS011;5860;52.018;8.536;2023-04-25T09:48:36;4.87;;;1.50;;
11608;SDS011;5860;52.018;8.536;2023-04-25T09:53:37;7.50;;;2.77;;
11608;SDS011;5860;52.018;8.536;2023-04-25T09:56:06;6.80;;;1.80;;
11608;SDS011;5860;52.018;8.536;2023-04-25T09:58:36;4.40;;;1.83;;
11608;SDS011;5860;52.018;8.536;2023-04-25T10:01:05;8.97;;;1.77;;
11608;SDS011;5860;52.018;8.536;2023-04-25T10:03:34;8.30;;;2.13;;
11608;SDS011;5860;52.018;8.536;2023-04-25T10:06:12;5.60;;;1.43;;
11608;SDS011;5860;52.018;8.536;2023-04-25T10:08:44;7.07;;;1.53;;
11608;SDS011;5860;52.018;8.536;2023-04-25T10:11:17;8.17;;;2.17;;
11608;SDS011;5860;52.018;8.536;2023-04-25T10:13:44;7.20;;;1.90;;
11608;SDS011;5860;52.018;8.536;2023-04-25T10:16:12;6.97;;;1.70;;
11608;SDS011;5860;52.018;8.536;2023-04-25T10:18:39;7.17;;;1.73;;
11608;SDS011;5860;52.018;8.536;2023-04-25T10:21:06;6.33;;;2.00;;
11608;SDS011;5860;52.018;8.536;2023-04-25T10:23:34;7.60;;;2.00;;
11608;SDS011;5860;52.018;8.536;2023-04-25T10:26:03;13.50;;;1.93;;
11608;SDS011;5860;52.018;8.536;2023-04-25T10:28:54;6.77;;;1.70;;
11608;SDS011;5860;52.018;8.536;2023-04-25T10:31:26;4.97;;;1.60;;
11608;SDS011;5860;52.018;8.536;2023-04-25T10:33:53;9.70;;;2.17;;
11608;SDS011;5860;52.018;8.536;2023-04-25T10:36:21;8.00;;;2.07;;
11608;SDS011;5860;52.018;8.536;2023-04-25T10:38:49;6.30;;;1.80;;
11608;SDS011;5860;52.018;8.536;2023-04-25T10:41:17;7.73;;;2.27;;
11608;SDS011;5860;52.018;8.536;2023-04-25T10:43:46;12.07;;;2.53;;
11608;SDS011;5860;52.018;8.536;2023-04-25T10:48:51;7.43;;;1.60;;
11608;SDS011;5860;52.018;8.536;2023-04-25T10:51:25;7.03;;;1.80;;
11608;SDS011;5860;52.018;8.536;2023-04-25T10:54:06;4.10;;;1.60;;
11608;SDS011;5860;52.018;8.536;2023-04-25T10:56:38;5.17;;;1.87;;
11608;SDS011;5860;52.018;8.536;2023-04-25T11:04:30;5.27;;;1.60;;
11608;SDS011;5860;52.018;8.536;2023-04-25T11:09:33;6.47;;;1.80;;
11608;SDS011;5860;52.018;8.536;2023-04-25T11:12:01;5.37;;;1.50;;
11608;SDS011;5860;52.018;8.536;2023-04-25T11:14:28;6.27;;;1.80;;
11608;SDS011;5860;52.018;8.536;2023-04-25T11:16:58;4.80;;;1.80;;
11608;SDS011;5860;52.018;8.536;2023-04-25T11:19:27;5.20;;;1.80;;
11608;SDS011;5860;52.018;8.536;2023-04-25T11:21:55;6.67;;;1.70;;
11608;SDS011;5860;52.018;8.536;2023-04-25T11:24:30;5.93;;;1.60;;
11608;SDS011;5860;52.018;8.536;2023-04-25T11:26:58;7.17;;;2.17;;
11608;SDS011;5860;52.018;8.536;2023-04-25T11:29:26;11.03;;;2.13;;
11608;SDS011;5860;52.018;8.536;2023-04-25T11:31:54;6.20;;;1.80;;
11608;SDS011;5860;52.018;8.536;2023-04-25T11:34:25;9.37;;;2.33;;
11608;SDS011;5860;52.018;8.536;2023-04-25T11:36:52;5.23;;;1.63;;
11608;SDS011;5860;52.018;8.536;2023-04-25T11:39:20;8.80;;;2.00;;
11608;SDS011;5860;52.018;8.536;2023-04-25T11:41:48;7.60;;;2.07;;
11608;SDS011;5860;52.018;8.536;2023-04-25T11:44:17;8.47;;;2.30;;
11608;SDS011;5860;52.018;8.536;2023-04-25T11:46:46;11.87;;;2.63;;
11608;SDS011;5860;52.018;8.536;2023-04-25T11:49:14;7.07;;;2.10;;
11608;SDS011;5860;52.018;8.536;2023-04-25T11:51:42;7.53;;;2.37;;
11608;SDS011;5860;52.018;8.536;2023-04-25T11:54:10;6.67;;;2.23;;
11608;SDS011;5860;52.018;8.536;2023-04-25T11:56:41;4.67;;;2.00;;
11608;SDS011;5860;52.018;8.536;2023-04-25T11:59:09;7.97;;;2.27;;
11608;SDS011;5860;52.018;8.536;2023-04-25T12:01:38;7.30;;;1.93;;
11608;SDS011;5860;52.018;8.536;2023-04-25T12:04:10;8.50;;;2.20;;
11608;SDS011;5860;52.018;8.536;2023-04-25T12:06:46;6.70;;;1.70;;
11608;SDS011;5860;52.018;8.536;2023-04-25T12:09:16;6.77;;;1.70;;
11608;SDS011;5860;52.018;8.536;2023-04-25T12:11:56;6.77;;;2.10;;
11608;SDS011;5860;52.018;8.536;2023-04-25T12:14:26;5.40;;;1.77;;
11608;SDS011;5860;52.018;8.536;2023-04-25T12:16:56;4.17;;;1.90;;
11608;SDS011;5860;52.018;8.536;2023-04-25T12:19:25;5.30;;;2.27;;
11608;SDS011;5860;52.018;8.536;2023-04-25T12:21:57;4.73;;;1.90;;
11608;SDS011;5860;52.018;8.536;2023-04-25T12:24:26;3.37;;;1.40;;
11608;SDS011;5860;52.018;8.536;2023-04-25T12:27:01;5.63;;;1.80;;
11608;SDS011;5860;52.018;8.536;2023-04-25T12:29:31;4.43;;;1.57;;
11608;SDS011;5860;52.018;8.536;2023-04-25T12:32:14;5.97;;;1.33;;
11608;SDS011;5860;52.018;8.536;2023-04-25T12:34:41;3.87;;;1.30;;
11608;SDS011;5860;52.018;8.536;2023-04-25T12:37:09;4.30;;;1.63;;
11608;SDS011;5860;52.018;8.536;2023-04-25T12:39:36;11.07;;;1.60;;
11608;SDS011;5860;52.018;8.536;2023-04-25T12:42:03;5.20;;;1.67;;
11608;SDS011;5860;52.018;8.536;2023-04-25T12:44:34;7.07;;;1.47;;
11608;SDS011;5860;52.018;8.536;2023-04-25T12:47:02;7.07;;;1.60;;
11608;SDS011;5860;52.018;8.536;2023-04-25T12:49:29;7.57;;;1.40;;
11608;SDS011;5860;52.018;8.536;2023-04-25T12:51:57;4.40;;;1.17;;
11608;SDS011;5860;52.018;8.536;2023-04-25T12:54:24;6.00;;;1.40;;
11608;SDS011;5860;52.018;8.536;2023-04-25T12:56:52;5.63;;;1.37;;
11608;SDS011;5860;52.018;8.536;2023-04-25T12:59:18;5.53;;;1.43;;
11608;SDS011;5860;52.018;8.536;2023-04-25T13:01:47;5.67;;;1.60;;
11608;SDS011;5860;52.018;8.536;2023-04-25T13:04:14;5.97;;;1.27;;
11608;SDS011;5860;52.018;8.536;2023-04-25T13:06:42;3.20;;;1.23;;
11608;SDS011;5860;52.018;8.536;2023-04-25T13:09:09;2.63;;;1.40;;
11608;SDS011;5860;52.018;8.536;2023-04-25T13:11:39;6.80;;;1.90;;
11608;SDS011;5860;52.018;8.536;2023-04-25T13:14:07;5.93;;;1.43;;
11608;SDS011;5860;52.018;8.536;2023-04-25T13:16:34;3.77;;;1.20;;
11608;SDS011;5860;52.018;8.536;2023-04-25T13:19:01;3.13;;;1.40;;
11608;SDS011;5860;52.018;8.536;2023-04-25T13:21:32;1.97;;;0.90;;
11608;SDS011;5860;52.018;8.536;2023-04-25T13:23:59;2.13;;;1.00;;
11608;SDS011;5860;52.018;8.536;2023-04-25T13:26:26;4.00;;;1.13;;
11608;SDS011;5860;52.018;8.536;2023-04-25T13:28:53;4.20;;;1.10;;
11608;SDS011;5860;52.018;8.536;2023-04-25T13:31:20;4.30;;;1.27;;
11608;SDS011;5860;52.018;8.536;2023-04-25T13:33:47;5.27;;;1.60;;
11608;SDS011;5860;52.018;8.536;2023-04-25T13:36:15;4.57;;;1.20;;
11608;SDS011;5860;52.018;8.536;2023-04-25T13:38:42;4.43;;;1.17;;
11608;SDS011;5860;52.018;8.536;2023-04-25T13:41:11;8.03;;;1.10;;
11608;SDS011;5860;52.018;8.536;2023-04-25T13:43:44;4.97;;;1.57;;
11608;SDS011;5860;52.018;8.536;2023-04-25T13:46:13;4.37;;;1.10;;
11608;SDS011;5860;52.018;8.536;2023-04-25T13:49:01;3.10;;;1.20;;
11608;SDS011;5860;52.018;8.536;2023-04-25T13:51:38;2.50;;;1.00;;
11608;SDS011;5860;52.018;8.536;2023-04-25T13:54:05;4.87;;;0.83;;
11608;SDS011;5860;52.018;8.536;2023-04-25T13:56:32;4.40;;;1.10;;
11608;SDS011;5860;52.018;8.536;2023-04-25T13:58:59;3.17;;;1.13;;
11608;SDS011;5860;52.018;8.536;2023-04-25T14:01:27;2.90;;;1.07;;
11608;SDS011;5860;52.018;8.536;2023-04-25T14:03:57;3.57;;;1.20;;
11608;SDS011;5860;52.018;8.536;2023-04-25T14:06:24;10.27;;;1.30;;
11608;SDS011;5860;52.018;8.536;2023-04-25T14:08:51;6.97;;;1.17;;
11608;SDS011;5860;52.018;8.536;2023-04-25T14:11:18;2.97;;;1.07;;
11608;SDS011;5860;52.018;8.536;2023-04-25T14:13:46;2.97;;;1.00;;
11608;SDS011;5860;52.018;8.536;2023-04-25T14:16:15;3.57;;;1.27;;
11608;SDS011;5860;52.018;8.536;2023-04-25T14:18:42;3.03;;;1.17;;
11608;SDS011;5860;52.018;8.536;2023-04-25T14:21:10;4.47;;;1.17;;
11608;SDS011;5860;52.018;8.536;2023-04-25T14:23:37;3.83;;;1.23;;
11608;SDS011;5860;52.018;8.536;2023-04-25T14:26:04;6.13;;;1.20;;
11608;SDS011;5860;52.018;8.536;2023-04-25T14:28:32;3.63;;;1.03;;
11608;SDS011;5860;52.018;8.536;2023-04-25T14:30:59;3.73;;;1.03;;
11608;SDS011;5860;52.018;8.536;2023-04-25T14:33:27;4.57;;;1.10;;
11608;SDS011;5860;52.018;8.536;2023-04-25T14:35:54;2.77;;;0.80;;
11608;SDS011;5860;52.018;8.536;2023-04-25T14:38:22;4.27;;;1.20;;
11608;SDS011;5860;52.018;8.536;2023-04-25T14:40:51;3.30;;;1.13;;
11608;SDS011;5860;52.018;8.536;2023-04-25T14:43:18;1.93;;;1.00;;
11608;SDS011;5860;52.018;8.536;2023-04-25T14:45:45;3.40;;;1.30;;
11608;SDS011;5860;52.018;8.536;2023-04-25T14:48:12;5.90;;;2.80;;
11608;SDS011;5860;52.018;8.536;2023-04-25T14:50:39;2.93;;;1.30;;
11608;SDS011;5860;52.018;8.536;2023-04-25T14:53:06;2.60;;;1.20;;
11608;SDS011;5860;52.018;8.536;2023-04-25T14:55:33;2.73;;;1.23;;
11608;SDS011;5860;52.018;8.536;2023-04-25T14:57:59;5.07;;;1.20;;
11608;SDS011;5860;52.018;8.536;2023-04-25T15:00:27;5.30;;;1.40;;
11608;SDS011;5860;52.018;8.536;2023-04-25T15:02:55;3.97;;;0.93;;
11608;SDS011;5860;52.018;8.536;2023-04-25T15:05:22;4.20;;;1.17;;
11608;SDS011;5860;52.018;8.536;2023-04-25T15:07:50;4.33;;;1.37;;
11608;SDS011;5860;52.018;8.536;2023-04-25T15:10:17;2.33;;;0.97;;
11608;SDS011;5860;52.018;8.536;2023-04-25T15:12:47;4.43;;;1.13;;
11608;SDS011;5860;52.018;8.536;2023-04-25T15:15:14;2.87;;;1.30;;